createdAt,value
2022-07-29T00:02:31.143Z,97.60
2022-07-29T00:05:25.023Z,97.60
2022-07-29T00:08:19.056Z,97.70
2022-07-29T00:11:06.175Z,97.90
2022-07-29T00:14:00.082Z,98.00
2022-07-29T00:16:47.300Z,98.00
2022-07-29T00:19:45.487Z,98.10
2022-07-29T00:22:39.018Z,98.10
2022-07-29T00:25:33.063Z,98.20
2022-07-29T00:28:28.038Z,98.20
2022-07-29T00:31:16.159Z,98.20
2022-07-29T00:34:11.046Z,98.60
2022-07-29T00:37:05.097Z,98.40
2022-07-29T00:40:01.018Z,98.50
2022-07-29T00:42:51.403Z,98.60
2022-07-29T00:45:45.082Z,98.60
2022-07-29T00:48:39.101Z,98.60
2022-07-29T00:51:28.000Z,98.70
2022-07-29T00:54:22.086Z,98.70
2022-07-29T00:57:16.068Z,99.10
2022-07-29T01:00:08.397Z,99.00
2022-07-29T01:03:02.064Z,99.10
2022-07-29T01:05:57.086Z,99.10
2022-07-29T01:08:45.461Z,99.10
2022-07-29T01:11:40.077Z,99.20
2022-07-29T01:14:27.969Z,99.30
2022-07-29T01:17:54.119Z,99.20
2022-07-29T01:21:09.464Z,99.40
2022-07-29T01:24:24.094Z,99.50
2022-07-29T01:27:39.432Z,99.40
2022-07-29T01:30:34.187Z,99.50
2022-07-29T01:33:50.195Z,99.60
2022-07-29T01:36:46.547Z,99.60
2022-07-29T01:39:46.197Z,99.70
2022-07-29T01:42:45.637Z,99.70
2022-07-29T01:45:48.203Z,99.80
2022-07-29T01:48:44.048Z,99.80
2022-07-29T01:51:54.170Z,99.80
2022-07-29T01:55:02.155Z,99.90
2022-07-29T01:57:50.650Z,99.90
2022-07-29T02:00:45.225Z,99.90
2022-07-29T02:03:34.422Z,99.90
2022-07-29T02:06:31.179Z,99.90
2022-07-29T02:09:33.166Z,99.90
2022-07-29T02:12:21.685Z,99.90
2022-07-29T02:15:17.180Z,99.90
2022-07-29T02:18:26.341Z,99.90
2022-07-29T02:21:23.196Z,99.90
2022-07-29T02:24:20.173Z,99.90
2022-07-29T02:27:09.185Z,99.90
2022-07-29T02:30:06.243Z,99.90
2022-07-29T02:32:54.517Z,99.90
2022-07-29T02:35:49.227Z,99.90
2022-07-29T02:39:05.217Z,99.90
2022-07-29T02:42:06.287Z,99.90
2022-07-29T02:45:00.279Z,99.90
2022-07-29T02:47:50.756Z,99.90
2022-07-29T02:50:56.245Z,99.90
2022-07-29T02:53:55.299Z,99.90
2022-07-29T02:56:45.795Z,99.90
2022-07-29T02:59:42.310Z,99.90
2022-07-29T03:02:39.289Z,99.90
2022-07-29T03:05:34.298Z,99.90
2022-07-29T03:08:22.940Z,99.90
2022-07-29T03:11:17.272Z,99.90
2022-07-29T03:14:05.619Z,99.90
2022-07-29T03:17:00.282Z,99.90
2022-07-29T03:19:54.290Z,99.90
2022-07-29T03:22:54.275Z,99.90
2022-07-29T03:25:48.307Z,99.90
2022-07-29T03:28:35.357Z,99.90
2022-07-29T03:31:30.408Z,99.90
2022-07-29T03:34:24.311Z,99.90
2022-07-29T03:37:11.459Z,99.90
2022-07-29T03:40:05.324Z,99.90
2022-07-29T03:42:54.879Z,99.90
2022-07-29T03:45:53.447Z,99.90
2022-07-29T03:48:47.472Z,99.90
2022-07-29T03:51:41.328Z,99.90
2022-07-29T03:54:35.344Z,99.90
2022-07-29T03:57:27.841Z,99.90
2022-07-29T04:00:23.426Z,99.90
2022-07-29T04:03:17.480Z,99.90
2022-07-29T04:06:07.048Z,99.90
2022-07-29T04:09:01.390Z,99.90
2022-07-29T04:12:01.952Z,99.90
2022-07-29T04:14:57.360Z,99.90
2022-07-29T04:17:51.619Z,99.90
2022-07-29T04:20:45.378Z,99.90
2022-07-29T04:23:34.402Z,99.90
2022-07-29T04:26:28.420Z,99.90
2022-07-29T04:29:15.876Z,99.90
2022-07-29T04:32:09.387Z,99.90
2022-07-29T04:34:56.489Z,99.90
2022-07-29T04:37:50.417Z,99.90
2022-07-29T04:40:44.955Z,99.90
2022-07-29T04:43:38.424Z,99.90
2022-07-29T04:46:32.458Z,99.90
2022-07-29T04:49:19.621Z,99.90
2022-07-29T04:52:14.474Z,99.90
2022-07-29T04:55:01.901Z,99.90
2022-07-29T04:57:55.471Z,99.90
2022-07-29T05:00:42.584Z,99.90
2022-07-29T05:03:36.454Z,99.90
2022-07-29T05:06:23.584Z,99.90
2022-07-29T05:09:17.445Z,99.90
2022-07-29T05:12:11.496Z,99.90
2022-07-29T05:15:05.478Z,99.90
2022-07-29T05:17:59.475Z,99.90
2022-07-29T05:20:46.676Z,99.90
2022-07-29T05:23:40.506Z,99.90
2022-07-29T05:26:34.508Z,99.90
2022-07-29T05:29:43.328Z,99.90
2022-07-29T05:32:35.499Z,99.90
2022-07-29T05:35:22.669Z,99.90
2022-07-29T05:38:16.495Z,99.90
2022-07-29T05:41:04.827Z,99.90
2022-07-29T05:43:58.550Z,99.90
2022-07-29T05:46:45.675Z,99.90
2022-07-29T05:49:39.504Z,99.90
2022-07-29T05:52:33.532Z,99.90
2022-07-29T05:55:20.657Z,99.90
2022-07-29T05:58:14.533Z,99.90
2022-07-29T06:01:08.648Z,99.90
2022-07-29T06:03:55.874Z,99.90
2022-07-29T06:06:49.594Z,99.90
2022-07-29T06:09:43.566Z,99.90
2022-07-29T06:12:37.597Z,99.90
2022-07-29T06:15:24.705Z,99.90
2022-07-29T06:18:20.583Z,99.90
2022-07-29T06:21:11.008Z,99.90
2022-07-29T06:24:04.613Z,99.90
2022-07-29T06:26:58.630Z,99.90
2022-07-29T06:29:52.590Z,99.90
2022-07-29T06:32:43.051Z,99.90
2022-07-29T06:35:42.162Z,99.90
2022-07-29T06:38:42.015Z,99.90
2022-07-29T06:41:38.592Z,99.90
2022-07-29T06:44:32.617Z,99.90
2022-07-29T06:47:19.693Z,99.90
2022-07-29T06:50:13.657Z,99.90
2022-07-29T06:53:07.629Z,99.90
2022-07-29T06:55:54.737Z,99.90
2022-07-29T06:58:48.675Z,99.90
2022-07-29T07:01:48.697Z,99.90
2022-07-29T07:04:42.652Z,99.90
2022-07-29T07:07:36.687Z,99.90
2022-07-29T07:10:30.712Z,99.90
2022-07-29T07:13:24.648Z,99.90
2022-07-29T07:16:18.733Z,99.90
2022-07-29T07:19:12.706Z,99.90
2022-07-29T07:22:01.371Z,99.90
2022-07-29T07:24:54.709Z,99.90
2022-07-29T07:27:48.663Z,99.90
2022-07-29T07:30:36.316Z,99.90
2022-07-29T07:33:29.679Z,99.90
2022-07-29T07:36:16.876Z,99.90
2022-07-29T07:39:11.693Z,99.90
2022-07-29T07:42:05.716Z,99.90
2022-07-29T07:45:13.090Z,99.90
2022-07-29T07:48:01.144Z,99.90
2022-07-29T07:50:56.713Z,99.50
2022-07-29T07:53:45.587Z,99.30
2022-07-29T07:56:39.784Z,98.70
2022-07-29T07:59:33.736Z,97.90
2022-07-29T08:02:27.844Z,98.00
2022-07-29T08:05:18.179Z,98.20
2022-07-29T08:08:11.776Z,98.50
2022-07-29T08:11:11.747Z,98.60
2022-07-29T08:13:59.360Z,98.30
2022-07-29T08:16:53.801Z,98.40
2022-07-29T08:19:47.773Z,98.80
2022-07-29T08:22:34.862Z,98.30
2022-07-29T08:25:28.760Z,98.40
2022-07-29T08:28:16.203Z,98.40
2022-07-29T08:31:09.825Z,98.00
2022-07-29T08:33:57.444Z,97.20
2022-07-29T08:36:52.779Z,97.00
2022-07-29T08:39:39.897Z,96.60
2022-07-29T08:42:33.816Z,96.80
2022-07-29T08:45:24.372Z,96.40
2022-07-29T08:48:19.795Z,96.00
2022-07-29T08:51:14.834Z,95.40
2022-07-29T08:54:08.799Z,95.10
2022-07-29T08:57:03.811Z,95.50
2022-07-29T08:59:55.008Z,95.40
2022-07-29T09:02:54.845Z,95.90
2022-07-29T09:05:53.835Z,95.60
2022-07-29T09:08:41.862Z,94.90
2022-07-29T09:11:35.872Z,95.20
2022-07-29T09:14:29.874Z,95.30
2022-07-29T09:17:18.774Z,94.40
2022-07-29T09:20:24.852Z,94.00
2022-07-29T09:23:12.166Z,93.50
2022-07-29T09:26:16.855Z,92.90
2022-07-29T09:29:24.878Z,93.30
2022-07-29T09:32:18.857Z,92.60
2022-07-29T09:35:23.144Z,92.00
2022-07-29T09:38:20.872Z,92.50
2022-07-29T09:41:09.802Z,92.40
2022-07-29T09:44:07.889Z,91.40
2022-07-29T09:47:03.005Z,91.10
2022-07-29T09:50:00.049Z,91.30
2022-07-29T09:52:56.924Z,90.80
2022-07-29T09:55:49.062Z,91.70
2022-07-29T09:58:43.111Z,91.90
2022-07-29T10:01:30.345Z,92.20
2022-07-29T10:04:23.959Z,92.60
2022-07-29T10:07:17.922Z,92.50
2022-07-29T10:10:11.902Z,91.80
2022-07-29T10:13:06.437Z,92.00
2022-07-29T10:16:02.954Z,90.70
2022-07-29T10:18:58.992Z,90.80
2022-07-29T10:21:46.301Z,90.70
2022-07-29T10:24:40.925Z,90.90
2022-07-29T10:27:34.970Z,90.70
2022-07-29T10:30:37.974Z,90.90
2022-07-29T10:33:44.252Z,91.00
2022-07-29T10:36:55.945Z,91.30
2022-07-29T10:40:25.460Z,92.00
2022-07-29T10:43:30.023Z,92.10
2022-07-29T10:46:19.619Z,91.70
2022-07-29T10:49:30.461Z,92.00
2022-07-29T10:52:19.116Z,92.00
2022-07-29T10:55:13.071Z,92.10
2022-07-29T10:58:13.056Z,92.50
2022-07-29T11:01:39.287Z,92.80
2022-07-29T11:04:51.001Z,92.80
2022-07-29T11:07:45.579Z,92.90
2022-07-29T11:10:40.999Z,93.10
2022-07-29T11:13:54.095Z,93.10
2022-07-29T11:17:11.016Z,93.30
2022-07-29T11:20:32.376Z,93.20
2022-07-29T11:23:36.023Z,92.70
2022-07-29T11:26:24.646Z,92.50
2022-07-29T11:29:28.172Z,92.90
2022-07-29T11:32:23.277Z,92.70
2022-07-29T11:35:37.033Z,92.10
2022-07-29T11:38:31.967Z,92.50
2022-07-29T11:41:30.074Z,92.50
2022-07-29T11:44:18.951Z,92.00
2022-07-29T11:47:16.112Z,91.90
2022-07-29T11:50:13.134Z,91.30
2022-07-29T11:53:08.785Z,91.00
2022-07-29T11:55:58.167Z,91.30
2022-07-29T11:58:53.155Z,91.00
2022-07-29T12:02:02.428Z,90.60
2022-07-29T12:05:11.044Z,90.10
2022-07-29T12:08:15.808Z,90.00
2022-07-29T12:11:10.373Z,90.50
2022-07-29T12:14:05.183Z,90.20
2022-07-29T12:16:52.450Z,90.10
2022-07-29T12:19:53.210Z,89.50
2022-07-29T12:22:49.135Z,88.90
2022-07-29T12:25:44.160Z,89.00
2022-07-29T12:28:38.211Z,89.10
2022-07-29T12:31:43.636Z,89.50
2022-07-29T12:34:39.177Z,89.50
2022-07-29T12:37:42.495Z,89.50
2022-07-29T12:40:36.158Z,88.30
2022-07-29T12:43:25.174Z,88.30
2022-07-29T12:46:21.246Z,88.60
2022-07-29T12:49:08.472Z,88.70
2022-07-29T12:52:02.421Z,89.20
2022-07-29T12:54:49.577Z,89.00
2022-07-29T12:57:56.237Z,88.60
2022-07-29T13:00:50.245Z,88.80
2022-07-29T13:04:08.203Z,87.50
2022-07-29T13:07:14.699Z,87.50
2022-07-29T13:10:24.449Z,87.60
2022-07-29T13:13:16.460Z,88.50
2022-07-29T13:16:15.298Z,88.30
2022-07-29T13:19:07.433Z,89.00
2022-07-29T13:22:01.465Z,88.10
2022-07-29T13:24:57.232Z,89.20
2022-07-29T13:28:07.242Z,86.70
2022-07-29T13:31:01.395Z,87.40
2022-07-29T13:33:55.234Z,86.80
2022-07-29T13:36:49.273Z,87.20
2022-07-29T13:39:36.956Z,86.10
2022-07-29T13:42:31.280Z,86.40
2022-07-29T13:45:18.517Z,86.30
2022-07-29T13:48:13.279Z,86.00
2022-07-29T13:51:07.284Z,84.30
2022-07-29T13:54:01.318Z,83.30
2022-07-29T13:56:57.275Z,81.60
2022-07-29T13:59:45.205Z,82.10
2022-07-29T14:02:39.314Z,81.70
2022-07-29T14:05:33.312Z,82.50
2022-07-29T14:08:27.519Z,82.50
2022-07-29T14:11:27.324Z,80.30
2022-07-29T14:14:14.470Z,76.20
2022-07-29T14:17:08.385Z,76.60
2022-07-29T14:20:02.309Z,77.40
2022-07-29T14:22:56.355Z,75.40
2022-07-29T14:25:50.347Z,76.10
2022-07-29T14:28:41.725Z,75.40
2022-07-29T14:31:35.391Z,74.80
2022-07-29T14:34:29.365Z,75.20
2022-07-29T14:37:16.710Z,67.30
2022-07-29T14:40:11.336Z,67.20
2022-07-29T14:43:05.365Z,66.20
2022-07-29T14:45:55.041Z,64.90
2022-07-29T14:48:51.505Z,63.60
2022-07-29T14:51:45.358Z,65.00
2022-07-29T14:54:39.390Z,66.50
2022-07-29T14:57:33.405Z,67.00
2022-07-29T15:00:21.719Z,68.20
2022-07-29T15:03:24.233Z,67.40
2022-07-29T15:06:11.924Z,67.20
2022-07-29T15:09:05.413Z,67.00
2022-07-29T15:11:59.721Z,68.60
2022-07-29T15:14:47.162Z,68.70
2022-07-29T15:17:40.402Z,68.70
2022-07-29T15:20:28.156Z,69.30
2022-07-29T15:23:21.422Z,71.10
2022-07-29T15:26:08.579Z,72.50
2022-07-29T15:29:03.855Z,73.30
2022-07-29T15:31:51.185Z,71.90
2022-07-29T15:34:52.479Z,69.10
2022-07-29T15:37:49.186Z,70.00
2022-07-29T15:40:48.461Z,71.60
2022-07-29T15:43:38.565Z,71.90
2022-07-29T15:46:50.473Z,72.40
2022-07-29T15:49:47.082Z,72.50
2022-07-29T15:52:42.508Z,70.10
2022-07-29T15:55:29.661Z,69.90
2022-07-29T15:58:23.495Z,71.50
2022-07-29T16:01:11.698Z,71.60
2022-07-29T16:04:05.495Z,71.10
2022-07-29T16:06:52.773Z,71.60
2022-07-29T16:09:52.395Z,72.10
2022-07-29T16:12:39.992Z,72.30
2022-07-29T16:15:33.498Z,72.20
2022-07-29T16:18:20.684Z,71.10
2022-07-29T16:21:23.698Z,70.70
2022-07-29T16:24:10.866Z,72.40
2022-07-29T16:27:04.519Z,73.90
2022-07-29T16:29:59.624Z,74.90
2022-07-29T16:32:55.519Z,74.70
2022-07-29T16:35:49.518Z,76.20
2022-07-29T16:38:38.189Z,75.80
2022-07-29T16:41:41.538Z,76.10
2022-07-29T16:44:36.045Z,76.20
2022-07-29T16:47:23.231Z,76.90
2022-07-29T16:50:19.527Z,77.40
2022-07-29T16:53:13.555Z,77.10
2022-07-29T16:56:01.059Z,77.50
2022-07-29T16:58:54.583Z,78.00
2022-07-29T17:01:48.596Z,78.90
2022-07-29T17:04:42.584Z,79.60
2022-07-29T17:07:29.782Z,80.70
2022-07-29T17:10:23.612Z,81.80
2022-07-29T17:13:10.867Z,80.90
2022-07-29T17:16:04.678Z,81.20
2022-07-29T17:19:02.574Z,82.30
2022-07-29T17:21:49.749Z,82.80
2022-07-29T17:24:43.614Z,83.40
2022-07-29T17:27:37.589Z,83.80
2022-07-29T17:30:31.624Z,84.50
2022-07-29T17:33:25.637Z,85.10
2022-07-29T17:36:24.958Z,85.60
2022-07-29T17:39:18.672Z,85.70
2022-07-29T17:42:06.119Z,85.60
2022-07-29T17:44:59.622Z,85.60
2022-07-29T17:47:46.733Z,85.50
2022-07-29T17:50:40.639Z,85.40
2022-07-29T17:53:34.643Z,85.80
2022-07-29T17:56:28.646Z,85.60
2022-07-29T17:59:15.874Z,85.70
2022-07-29T18:02:09.776Z,86.10
2022-07-29T18:04:57.170Z,86.10
2022-07-29T18:07:50.658Z,87.10
2022-07-29T18:10:44.675Z,87.00
2022-07-29T18:13:38.655Z,88.60
2022-07-29T18:16:34.741Z,88.40
2022-07-29T18:19:28.649Z,89.30
2022-07-29T18:22:15.838Z,89.80
2022-07-29T18:25:09.694Z,89.50
2022-07-29T18:28:05.717Z,90.00
2022-07-29T18:30:53.031Z,90.20
2022-07-29T18:33:46.789Z,90.60
2022-07-29T18:36:33.852Z,90.60
2022-07-29T18:39:27.731Z,90.80
2022-07-29T18:42:21.734Z,90.90
2022-07-29T18:45:18.979Z,91.20
2022-07-29T18:48:14.786Z,91.40
2022-07-29T18:51:09.763Z,91.60
2022-07-29T18:54:03.699Z,92.00
2022-07-29T18:56:58.034Z,92.20
2022-07-29T18:59:45.341Z,92.50
2022-07-29T19:02:38.859Z,92.80
2022-07-29T19:05:32.754Z,92.90
2022-07-29T19:08:19.824Z,93.20
2022-07-29T19:11:13.768Z,93.40
2022-07-29T19:14:01.174Z,93.70
2022-07-29T19:16:54.949Z,94.00
2022-07-29T19:19:42.433Z,94.20
2022-07-29T19:22:35.838Z,94.60
2022-07-29T19:25:29.996Z,94.80
2022-07-29T19:28:25.813Z,95.00
2022-07-29T19:31:13.359Z,95.30
2022-07-29T19:34:06.823Z,95.60
2022-07-29T19:37:01.152Z,95.70
2022-07-29T19:39:48.572Z,96.00
2022-07-29T19:42:41.799Z,96.20
2022-07-29T19:45:30.337Z,96.30
2022-07-29T19:48:23.817Z,96.40
2022-07-29T19:51:11.577Z,96.60
2022-07-29T19:54:05.827Z,96.80
2022-07-29T19:57:00.173Z,97.00
2022-07-29T19:59:54.851Z,97.20
2022-07-29T20:02:49.927Z,97.40
2022-07-29T20:05:43.852Z,97.50
2022-07-29T20:08:35.216Z,97.70
2022-07-29T20:11:35.883Z,97.90
2022-07-29T20:14:24.412Z,98.10
2022-07-29T20:17:17.859Z,98.30
2022-07-29T20:20:12.871Z,98.50
2022-07-29T20:23:02.213Z,98.80
2022-07-29T20:25:55.911Z,99.10
2022-07-29T20:28:48.908Z,99.50
2022-07-29T20:31:42.862Z,99.90
2022-07-29T20:34:30.293Z,99.90
2022-07-29T20:37:26.883Z,99.90
2022-07-29T20:40:14.343Z,99.90
2022-07-29T20:43:07.951Z,99.90
2022-07-29T20:46:01.977Z,99.90
2022-07-29T20:48:49.120Z,99.90
2022-07-29T20:51:43.835Z,99.90
2022-07-29T20:54:31.298Z,99.90
2022-07-29T20:57:38.649Z,99.90
2022-07-29T21:00:27.000Z,99.90
2022-07-29T21:03:20.996Z,99.90
2022-07-29T21:06:09.146Z,99.90
2022-07-29T21:09:03.915Z,99.90
2022-07-29T21:11:51.064Z,99.90
2022-07-29T21:14:48.059Z,99.90
2022-07-29T21:17:43.017Z,99.90
2022-07-29T21:20:31.040Z,99.90
2022-07-29T21:23:31.945Z,99.90
2022-07-29T21:26:25.954Z,99.90
2022-07-29T21:29:19.950Z,99.90
2022-07-29T21:32:07.154Z,99.90
2022-07-29T21:35:00.980Z,99.90
2022-07-29T21:37:48.251Z,99.90
2022-07-29T21:40:41.994Z,99.90
2022-07-29T21:43:29.208Z,99.90
2022-07-29T21:46:24.437Z,99.90
2022-07-29T21:49:18.035Z,99.90
2022-07-29T21:52:05.615Z,99.90
2022-07-29T21:55:00.992Z,99.90
2022-07-29T21:57:55.029Z,99.90
2022-07-29T22:00:49.004Z,99.90
2022-07-29T22:03:43.032Z,99.90
2022-07-29T22:06:32.730Z,99.90
2022-07-29T22:09:26.091Z,99.90
2022-07-29T22:12:13.149Z,99.90
2022-07-29T22:15:07.023Z,99.90
2022-07-29T22:17:54.257Z,99.90
2022-07-29T22:20:48.030Z,99.90
2022-07-29T22:23:42.102Z,99.90
2022-07-29T22:26:29.300Z,99.90
2022-07-29T22:29:24.071Z,99.90
2022-07-29T22:32:18.069Z,99.90
2022-07-29T22:35:12.061Z,99.90
2022-07-29T22:37:59.152Z,99.90
2022-07-29T22:40:54.061Z,99.90
2022-07-29T22:43:47.878Z,99.90
2022-07-29T22:46:42.089Z,99.90
2022-07-29T22:49:36.110Z,99.90
2022-07-29T22:52:30.094Z,99.90
2022-07-29T22:55:24.105Z,99.90
2022-07-29T22:58:18.110Z,99.90
2022-07-29T23:01:12.206Z,99.90
2022-07-29T23:04:06.200Z,99.90
2022-07-29T23:06:53.481Z,99.90
2022-07-29T23:09:47.138Z,99.90
2022-07-29T23:12:41.123Z,99.90
2022-07-29T23:15:28.250Z,99.90
2022-07-29T23:18:22.189Z,99.90
2022-07-29T23:21:09.240Z,99.90
2022-07-29T23:24:03.280Z,99.90
2022-07-29T23:26:50.385Z,99.90
2022-07-29T23:29:45.185Z,99.90
2022-07-29T23:32:32.385Z,99.90
2022-07-29T23:35:26.173Z,99.90
2022-07-29T23:38:13.300Z,99.90
2022-07-29T23:41:08.197Z,99.90
2022-07-29T23:44:02.188Z,99.90
2022-07-29T23:46:56.186Z,99.90
2022-07-29T23:49:43.488Z,99.90
2022-07-29T23:52:37.229Z,99.90
2022-07-29T23:55:37.594Z,99.90
2022-07-29T23:58:32.209Z,99.90
